sensor_id;sensor_type;location;lat;lon;timestamp;P1;durP1;ratioP1;P2;durP2;ratioP2
12888;SDS011;56848;49.896;11.424;2023-02-28T05:03:11;8.80;;;5.30;;
12888;SDS011;56848;49.896;11.424;2023-02-28T05:05:36;12.47;;;6.03;;
12888;SDS011;56848;49.896;11.424;2023-02-28T05:08:02;10.23;;;5.00;;
12888;SDS011;56848;49.896;11.424;2023-02-28T05:10:27;19.83;;;6.37;;
12888;SDS011;56848;49.896;11.424;2023-02-28T05:12:53;12.23;;;5.60;;
12888;SDS011;56848;49.896;11.424;2023-02-28T05:15:19;11.60;;;6.37;;
12888;SDS011;56848;49.896;11.424;2023-02-28T05:17:44;13.40;;;5.93;;
12888;SDS011;56848;49.896;11.424;2023-02-28T05:20:10;15.63;;;5.30;;
12888;SDS011;56848;49.896;11.424;2023-02-28T05:22:39;9.30;;;5.40;;
12888;SDS011;56848;49.896;11.424;2023-02-28T05:25:05;14.10;;;6.72;;
12888;SDS011;56848;49.896;11.424;2023-02-28T05:27:32;10.27;;;5.95;;
12888;SDS011;56848;49.896;11.424;2023-02-28T05:29:58;9.43;;;4.90;;
12888;SDS011;56848;49.896;11.424;2023-02-28T05:32:24;11.60;;;6.10;;
12888;SDS011;56848;49.896;11.424;2023-02-28T05:34:50;14.90;;;6.20;;
12888;SDS011;56848;49.896;11.424;2023-02-28T05:37:15;10.83;;;6.03;;
12888;SDS011;56848;49.896;11.424;2023-02-28T05:39:41;14.17;;;6.67;;
12888;SDS011;56848;49.896;11.424;2023-02-28T05:42:08;11.85;;;6.20;;
12888;SDS011;56848;49.896;11.424;2023-02-28T05:44:34;12.63;;;6.10;;
12888;SDS011;56848;49.896;11.424;2023-02-28T05:47:00;13.80;;;6.22;;
12888;SDS011;56848;49.896;11.424;2023-02-28T05:49:26;11.27;;;6.27;;
12888;SDS011;56848;49.896;11.424;2023-02-28T05:51:51;10.50;;;6.20;;
12888;SDS011;56848;49.896;11.424;2023-02-28T05:54:17;16.27;;;7.03;;
12888;SDS011;56848;49.896;11.424;2023-02-28T05:56:43;14.83;;;7.30;;
12888;SDS011;56848;49.896;11.424;2023-02-28T05:59:14;12.98;;;6.35;;
12888;SDS011;56848;49.896;11.424;2023-02-28T06:01:40;10.80;;;6.25;;
12888;SDS011;56848;49.896;11.424;2023-02-28T06:04:12;13.75;;;7.25;;
12888;SDS011;56848;49.896;11.424;2023-02-28T06:06:42;13.35;;;6.55;;
12888;SDS011;56848;49.896;11.424;2023-02-28T06:09:12;5.10;;;3.65;;
12888;SDS011;56848;49.896;11.424;2023-02-28T06:11:38;11.50;;;5.00;;
12888;SDS011;56848;49.896;11.424;2023-02-28T06:14:03;15.30;;;5.13;;
12888;SDS011;56848;49.896;11.424;2023-02-28T06:16:30;14.93;;;4.90;;
12888;SDS011;56848;49.896;11.424;2023-02-28T06:18:57;6.40;;;4.38;;
12888;SDS011;56848;49.896;11.424;2023-02-28T06:21:24;8.63;;;4.13;;
12888;SDS011;56848;49.896;11.424;2023-02-28T06:23:49;12.60;;;6.90;;
12888;SDS011;56848;49.896;11.424;2023-02-28T06:26:15;12.17;;;6.47;;
12888;SDS011;56848;49.896;11.424;2023-02-28T06:28:41;8.93;;;4.67;;
12888;SDS011;56848;49.896;11.424;2023-02-28T06:31:10;5.57;;;3.90;;
12888;SDS011;56848;49.896;11.424;2023-02-28T06:33:37;19.50;;;6.35;;
12888;SDS011;56848;49.896;11.424;2023-02-28T06:36:04;12.85;;;5.20;;
12888;SDS011;56848;49.896;11.424;2023-02-28T06:38:31;7.25;;;4.68;;
12888;SDS011;56848;49.896;11.424;2023-02-28T06:40:57;10.05;;;5.10;;
12888;SDS011;56848;49.896;11.424;2023-02-28T06:43:24;12.13;;;6.22;;
12888;SDS011;56848;49.896;11.424;2023-02-28T06:45:53;8.18;;;4.22;;
12888;SDS011;56848;49.896;11.424;2023-02-28T06:48:19;8.05;;;3.55;;
12888;SDS011;56848;49.896;11.424;2023-02-28T06:50:45;17.07;;;4.60;;
12888;SDS011;56848;49.896;11.424;2023-02-28T06:53:11;11.85;;;5.57;;
12888;SDS011;56848;49.896;11.424;2023-02-28T06:55:38;1.87;;;1.70;;
12888;SDS011;56848;49.896;11.424;2023-02-28T06:58:04;10.15;;;5.32;;
12888;SDS011;56848;49.896;11.424;2023-02-28T07:00:39;9.60;;;3.22;;
12888;SDS011;56848;49.896;11.424;2023-02-28T07:03:09;9.23;;;5.60;;
12888;SDS011;56848;49.896;11.424;2023-02-28T07:05:35;6.93;;;3.55;;
12888;SDS011;56848;49.896;11.424;2023-02-28T07:08:02;8.35;;;4.50;;
12888;SDS011;56848;49.896;11.424;2023-02-28T07:10:29;10.88;;;5.63;;
12888;SDS011;56848;49.896;11.424;2023-02-28T07:12:54;11.88;;;5.53;;
12888;SDS011;56848;49.896;11.424;2023-02-28T07:15:20;7.60;;;4.03;;
12888;SDS011;56848;49.896;11.424;2023-02-28T07:17:45;14.90;;;7.73;;
12888;SDS011;56848;49.896;11.424;2023-02-28T07:20:11;13.73;;;7.40;;
12888;SDS011;56848;49.896;11.424;2023-02-28T07:22:37;9.73;;;4.90;;
12888;SDS011;56848;49.896;11.424;2023-02-28T07:25:03;10.93;;;6.35;;
12888;SDS011;56848;49.896;11.424;2023-02-28T07:27:29;11.82;;;6.13;;
12888;SDS011;56848;49.896;11.424;2023-02-28T07:29:55;15.50;;;7.50;;
12888;SDS011;56848;49.896;11.424;2023-02-28T07:32:21;15.93;;;7.80;;
12888;SDS011;56848;49.896;11.424;2023-02-28T07:34:46;14.73;;;6.93;;
12888;SDS011;56848;49.896;11.424;2023-02-28T07:37:12;16.53;;;7.57;;
12888;SDS011;56848;49.896;11.424;2023-02-28T07:39:37;13.30;;;7.07;;
12888;SDS011;56848;49.896;11.424;2023-02-28T07:42:06;18.90;;;7.37;;
12888;SDS011;56848;49.896;11.424;2023-02-28T07:44:35;18.00;;;7.85;;
12888;SDS011;56848;49.896;11.424;2023-02-28T07:47:05;15.65;;;7.03;;
12888;SDS011;56848;49.896;11.424;2023-02-28T07:49:34;10.52;;;6.97;;
12888;SDS011;56848;49.896;11.424;2023-02-28T07:52:03;10.38;;;4.85;;
12888;SDS011;56848;49.896;11.424;2023-02-28T07:54:30;14.02;;;5.07;;
12888;SDS011;56848;49.896;11.424;2023-02-28T07:56:56;19.13;;;5.80;;
12888;SDS011;56848;49.896;11.424;2023-02-28T07:59:21;9.07;;;5.40;;
12888;SDS011;56848;49.896;11.424;2023-02-28T08:01:47;6.60;;;4.03;;
12888;SDS011;56848;49.896;11.424;2023-02-28T08:04:15;6.07;;;2.15;;
12888;SDS011;56848;49.896;11.424;2023-02-28T08:06:41;7.05;;;3.67;;
12888;SDS011;56848;49.896;11.424;2023-02-28T08:09:07;6.73;;;3.30;;
12888;SDS011;56848;49.896;11.424;2023-02-28T08:11:32;11.27;;;5.83;;
12888;SDS011;56848;49.896;11.424;2023-02-28T08:13:58;12.73;;;6.43;;
12888;SDS011;56848;49.896;11.424;2023-02-28T08:16:24;12.10;;;6.73;;
12888;SDS011;56848;49.896;11.424;2023-02-28T08:18:50;3.03;;;2.17;;
12888;SDS011;56848;49.896;11.424;2023-02-28T08:21:16;11.32;;;6.13;;
12888;SDS011;56848;49.896;11.424;2023-02-28T08:23:42;7.47;;;3.88;;
12888;SDS011;56848;49.896;11.424;2023-02-28T08:26:08;12.57;;;5.40;;
12888;SDS011;56848;49.896;11.424;2023-02-28T08:28:34;13.53;;;5.37;;
12888;SDS011;56848;49.896;11.424;2023-02-28T08:31:00;9.00;;;4.50;;
12888;SDS011;56848;49.896;11.424;2023-02-28T08:33:26;5.60;;;3.80;;
12888;SDS011;56848;49.896;11.424;2023-02-28T08:35:53;8.00;;;5.22;;
12888;SDS011;56848;49.896;11.424;2023-02-28T08:38:19;14.90;;;7.15;;
12888;SDS011;56848;49.896;11.424;2023-02-28T08:40:45;11.20;;;5.63;;
12888;SDS011;56848;49.896;11.424;2023-02-28T08:43:10;6.60;;;4.30;;
12888;SDS011;56848;49.896;11.424;2023-02-28T08:45:36;11.57;;;6.33;;
12888;SDS011;56848;49.896;11.424;2023-02-28T08:48:02;10.80;;;6.50;;
12888;SDS011;56848;49.896;11.424;2023-02-28T08:50:27;12.50;;;6.67;;
12888;SDS011;56848;49.896;11.424;2023-02-28T08:52:53;10.77;;;6.80;;
12888;SDS011;56848;49.896;11.424;2023-02-28T08:55:18;8.13;;;4.43;;
12888;SDS011;56848;49.896;11.424;2023-02-28T08:57:44;12.30;;;5.90;;
12888;SDS011;56848;49.896;11.424;2023-02-28T09:00:10;14.93;;;7.00;;
12888;SDS011;56848;49.896;11.424;2023-02-28T09:02:45;5.13;;;3.17;;
12888;SDS011;56848;49.896;11.424;2023-02-28T09:05:10;12.30;;;5.90;;
12888;SDS011;56848;49.896;11.424;2023-02-28T09:07:36;5.07;;;4.07;;
12888;SDS011;56848;49.896;11.424;2023-02-28T09:10:02;9.53;;;5.10;;
12888;SDS011;56848;49.896;11.424;2023-02-28T09:12:27;9.27;;;5.27;;
12888;SDS011;56848;49.896;11.424;2023-02-28T09:14:58;9.07;;;5.80;;
12888;SDS011;56848;49.896;11.424;2023-02-28T09:17:23;11.43;;;5.87;;
12888;SDS011;56848;49.896;11.424;2023-02-28T09:19:49;8.73;;;5.40;;
12888;SDS011;56848;49.896;11.424;2023-02-28T09:22:14;29.00;;;6.30;;
12888;SDS011;56848;49.896;11.424;2023-02-28T09:24:40;15.20;;;4.65;;
12888;SDS011;56848;49.896;11.424;2023-02-28T09:27:06;7.90;;;5.30;;
12888;SDS011;56848;49.896;11.424;2023-02-28T09:29:32;10.80;;;6.37;;
12888;SDS011;56848;49.896;11.424;2023-02-28T09:31:59;8.43;;;5.15;;
12888;SDS011;56848;49.896;11.424;2023-02-28T09:34:25;11.90;;;6.47;;
12888;SDS011;56848;49.896;11.424;2023-02-28T09:36:51;11.27;;;6.30;;
12888;SDS011;56848;49.896;11.424;2023-02-28T09:39:19;8.98;;;5.15;;
12888;SDS011;56848;49.896;11.424;2023-02-28T09:41:47;12.35;;;5.90;;
12888;SDS011;56848;49.896;11.424;2023-02-28T09:44:27;12.68;;;6.47;;
12888;SDS011;56848;49.896;11.424;2023-02-28T09:49:44;8.73;;;5.60;;
12888;SDS011;56848;49.896;11.424;2023-02-28T09:52:14;13.38;;;5.72;;
12888;SDS011;56848;49.896;11.424;2023-02-28T09:54:44;9.30;;;5.35;;
12888;SDS011;56848;49.896;11.424;2023-02-28T09:57:31;13.47;;;6.63;;
12888;SDS011;56848;49.896;11.424;2023-02-28T10:05:37;7.70;;;4.70;;
12888;SDS011;56848;49.896;11.424;2023-02-28T10:10:42;9.27;;;5.78;;
12888;SDS011;56848;49.896;11.424;2023-02-28T10:15:42;13.98;;;6.97;;
12888;SDS011;56848;49.896;11.424;2023-02-28T10:18:12;10.75;;;5.72;;
12888;SDS011;56848;49.896;11.424;2023-02-28T10:20:44;12.90;;;5.95;;
12888;SDS011;56848;49.896;11.424;2023-02-28T10:23:20;8.07;;;5.10;;
12888;SDS011;56848;49.896;11.424;2023-02-28T10:25:59;9.93;;;6.10;;
12888;SDS011;56848;49.896;11.424;2023-02-28T10:28:26;10.20;;;5.63;;
12888;SDS011;56848;49.896;11.424;2023-02-28T10:30:55;12.88;;;6.35;;
12888;SDS011;56848;49.896;11.424;2023-02-28T10:35:52;1.98;;;1.88;;
12888;SDS011;56848;49.896;11.424;2023-02-28T10:38:22;7.10;;;3.45;;
12888;SDS011;56848;49.896;11.424;2023-02-28T10:41:10;7.30;;;5.00;;
12888;SDS011;56848;49.896;11.424;2023-02-28T10:43:41;7.88;;;4.90;;
12888;SDS011;56848;49.896;11.424;2023-02-28T10:48:34;6.97;;;4.50;;
12888;SDS011;56848;49.896;11.424;2023-02-28T10:51:13;6.35;;;3.90;;
12888;SDS011;56848;49.896;11.424;2023-02-28T10:53:51;4.60;;;3.15;;
12888;SDS011;56848;49.896;11.424;2023-02-28T10:56:18;9.13;;;4.63;;
12888;SDS011;56848;49.896;11.424;2023-02-28T10:58:56;10.82;;;3.38;;
12888;SDS011;56848;49.896;11.424;2023-02-28T11:04:01;4.03;;;2.92;;
12888;SDS011;56848;49.896;11.424;2023-02-28T11:06:31;2.60;;;2.40;;
12888;SDS011;56848;49.896;11.424;2023-02-28T11:08:59;8.82;;;3.90;;
12888;SDS011;56848;49.896;11.424;2023-02-28T11:11:29;7.93;;;4.80;;
12888;SDS011;56848;49.896;11.424;2023-02-28T11:14:05;4.90;;;2.70;;
12888;SDS011;56848;49.896;11.424;2023-02-28T11:16:41;5.45;;;3.88;;
12888;SDS011;56848;49.896;11.424;2023-02-28T11:19:06;6.50;;;2.93;;
12888;SDS011;56848;49.896;11.424;2023-02-28T11:21:48;3.95;;;2.78;;
12888;SDS011;56848;49.896;11.424;2023-02-28T11:24:37;12.18;;;4.65;;
12888;SDS011;56848;49.896;11.424;2023-02-28T11:27:18;8.02;;;4.57;;
12888;SDS011;56848;49.896;11.424;2023-02-28T11:29:51;11.48;;;4.70;;
12888;SDS011;56848;49.896;11.424;2023-02-28T11:32:18;6.60;;;4.53;;
12888;SDS011;56848;49.896;11.424;2023-02-28T11:34:46;9.50;;;5.63;;
12888;SDS011;56848;49.896;11.424;2023-02-28T11:37:25;9.85;;;5.43;;
12888;SDS011;56848;49.896;11.424;2023-02-28T11:39:53;12.13;;;5.43;;
12888;SDS011;56848;49.896;11.424;2023-02-28T11:48:02;9.10;;;5.10;;
12888;SDS011;56848;49.896;11.424;2023-02-28T11:53:11;9.60;;;6.28;;
12888;SDS011;56848;49.896;11.424;2023-02-28T11:55:44;16.65;;;7.57;;
12888;SDS011;56848;49.896;11.424;2023-02-28T12:06:24;10.43;;;6.35;;
12888;SDS011;56848;49.896;11.424;2023-02-28T12:29:32;7.47;;;4.18;;
12888;SDS011;56848;49.896;11.424;2023-02-28T12:31:41;10.75;;;5.55;;
12888;SDS011;56848;49.896;11.424;2023-02-28T12:34:22;12.52;;;5.47;;
12888;SDS011;56848;49.896;11.424;2023-02-28T12:36:53;10.30;;;5.30;;
12888;SDS011;56848;49.896;11.424;2023-02-28T12:39:26;6.50;;;4.95;;
12888;SDS011;56848;49.896;11.424;2023-02-28T12:42:01;12.80;;;5.00;;
12888;SDS011;56848;49.896;11.424;2023-02-28T12:44:40;9.05;;;5.20;;
12888;SDS011;56848;49.896;11.424;2023-02-28T12:47:15;8.38;;;5.35;;
12888;SDS011;56848;49.896;11.424;2023-02-28T12:49:52;9.73;;;5.67;;
12888;SDS011;56848;49.896;11.424;2023-02-28T12:52:31;11.52;;;5.25;;
12888;SDS011;56848;49.896;11.424;2023-02-28T12:55:06;9.73;;;4.90;;
12888;SDS011;56848;49.896;11.424;2023-02-28T13:00:20;9.23;;;5.97;;
12888;SDS011;56848;49.896;11.424;2023-02-28T13:14:02;9.93;;;5.27;;
12888;SDS011;56848;49.896;11.424;2023-02-28T13:19:25;10.27;;;5.47;;
12888;SDS011;56848;49.896;11.424;2023-02-28T13:21:53;9.00;;;5.80;;
12888;SDS011;56848;49.896;11.424;2023-02-28T13:29:41;10.30;;;5.57;;
12888;SDS011;56848;49.896;11.424;2023-02-28T13:34:38;9.50;;;5.70;;
12888;SDS011;56848;49.896;11.424;2023-02-28T13:39:56;7.50;;;4.50;;
12888;SDS011;56848;49.896;11.424;2023-02-28T13:47:41;8.10;;;4.50;;
12888;SDS011;56848;49.896;11.424;2023-02-28T13:58:53;10.20;;;6.18;;
12888;SDS011;56848;49.896;11.424;2023-02-28T14:01:41;8.57;;;5.20;;
12888;SDS011;56848;49.896;11.424;2023-02-28T14:04:12;8.63;;;5.60;;
12888;SDS011;56848;49.896;11.424;2023-02-28T14:06:58;9.93;;;4.73;;
12888;SDS011;56848;49.896;11.424;2023-02-28T14:11:54;13.40;;;5.50;;
12888;SDS011;56848;49.896;11.424;2023-02-28T14:14:53;9.23;;;4.73;;
12888;SDS011;56848;49.896;11.424;2023-02-28T14:17:12;10.07;;;5.53;;
12888;SDS011;56848;49.896;11.424;2023-02-28T14:19:40;6.87;;;5.00;;
12888;SDS011;56848;49.896;11.424;2023-02-28T14:30:52;6.47;;;4.70;;
12888;SDS011;56848;49.896;11.424;2023-02-28T14:36:25;9.48;;;5.50;;
12888;SDS011;56848;49.896;11.424;2023-02-28T14:38:57;7.87;;;5.20;;
12888;SDS011;56848;49.896;11.424;2023-02-28T14:41:31;10.63;;;5.07;;
12888;SDS011;56848;49.896;11.424;2023-02-28T14:44:12;13.77;;;5.77;;
12888;SDS011;56848;49.896;11.424;2023-02-28T14:46:47;10.40;;;5.50;;
12888;SDS011;56848;49.896;11.424;2023-02-28T14:49:21;6.63;;;5.47;;
12888;SDS011;56848;49.896;11.424;2023-02-28T14:54:39;8.43;;;5.77;;
12888;SDS011;56848;49.896;11.424;2023-02-28T14:57:05;9.50;;;5.40;;
12888;SDS011;56848;49.896;11.424;2023-02-28T14:59:35;11.77;;;6.37;;
12888;SDS011;56848;49.896;11.424;2023-02-28T15:02:34;10.10;;;6.13;;
12888;SDS011;56848;49.896;11.424;2023-02-28T15:04:59;9.57;;;5.87;;
12888;SDS011;56848;49.896;11.424;2023-02-28T15:07:27;11.80;;;6.40;;
12888;SDS011;56848;49.896;11.424;2023-02-28T15:12:52;9.43;;;5.73;;
12888;SDS011;56848;49.896;11.424;2023-02-28T15:15:21;11.73;;;6.13;;
12888;SDS011;56848;49.896;11.424;2023-02-28T15:17:52;13.90;;;6.70;;
12888;SDS011;56848;49.896;11.424;2023-02-28T15:20:21;12.87;;;7.23;;
12888;SDS011;56848;49.896;11.424;2023-02-28T15:22:49;21.00;;;9.00;;
12888;SDS011;56848;49.896;11.424;2023-02-28T15:25:18;14.97;;;8.23;;
12888;SDS011;56848;49.896;11.424;2023-02-28T15:27:47;13.87;;;6.10;;
12888;SDS011;56848;49.896;11.424;2023-02-28T15:30:21;8.03;;;5.87;;
12888;SDS011;56848;49.896;11.424;2023-02-28T15:35:42;11.90;;;6.97;;
12888;SDS011;56848;49.896;11.424;2023-02-28T15:38:13;8.53;;;6.23;;
12888;SDS011;56848;49.896;11.424;2023-02-28T15:40:45;10.68;;;6.85;;
12888;SDS011;56848;49.896;11.424;2023-02-28T15:43:23;13.30;;;6.20;;
12888;SDS011;56848;49.896;11.424;2023-02-28T15:48:47;10.48;;;6.43;;
12888;SDS011;56848;49.896;11.424;2023-02-28T15:51:21;12.68;;;6.80;;
12888;SDS011;56848;49.896;11.424;2023-02-28T15:53:56;11.68;;;7.43;;
12888;SDS011;56848;49.896;11.424;2023-02-28T15:56:25;16.50;;;7.45;;
12888;SDS011;56848;49.896;11.424;2023-02-28T15:58:54;12.73;;;6.93;;
12888;SDS011;56848;49.896;11.424;2023-02-28T16:01:25;18.38;;;8.90;;
12888;SDS011;56848;49.896;11.424;2023-02-28T16:04:01;14.57;;;8.20;;
12888;SDS011;56848;49.896;11.424;2023-02-28T16:09:05;13.25;;;7.97;;
12888;SDS011;56848;49.896;11.424;2023-02-28T16:11:34;14.77;;;7.70;;
12888;SDS011;56848;49.896;11.424;2023-02-28T16:14:03;12.65;;;7.45;;
12888;SDS011;56848;49.896;11.424;2023-02-28T16:16:29;13.60;;;6.88;;
12888;SDS011;56848;49.896;11.424;2023-02-28T16:18:56;11.88;;;7.95;;
12888;SDS011;56848;49.896;11.424;2023-02-28T16:21:22;14.00;;;7.50;;
12888;SDS011;56848;49.896;11.424;2023-02-28T16:23:48;18.48;;;9.85;;
12888;SDS011;56848;49.896;11.424;2023-02-28T16:26:23;12.93;;;6.93;;
12888;SDS011;56848;49.896;11.424;2023-02-28T16:28:50;26.52;;;7.70;;
12888;SDS011;56848;49.896;11.424;2023-02-28T16:31:16;19.83;;;7.80;;
12888;SDS011;56848;49.896;11.424;2023-02-28T16:33:43;24.45;;;8.32;;
12888;SDS011;56848;49.896;11.424;2023-02-28T16:36:13;23.05;;;8.32;;
12888;SDS011;56848;49.896;11.424;2023-02-28T16:38:40;10.43;;;7.68;;
12888;SDS011;56848;49.896;11.424;2023-02-28T16:41:06;14.57;;;8.00;;
12888;SDS011;56848;49.896;11.424;2023-02-28T16:43:31;16.20;;;8.67;;
12888;SDS011;56848;49.896;11.424;2023-02-28T16:45:58;16.07;;;7.83;;
12888;SDS011;56848;49.896;11.424;2023-02-28T16:48:23;15.60;;;8.07;;
12888;SDS011;56848;49.896;11.424;2023-02-28T16:50:50;17.05;;;8.63;;
12888;SDS011;56848;49.896;11.424;2023-02-28T16:53:15;15.53;;;8.30;;
12888;SDS011;56848;49.896;11.424;2023-02-28T16:55:41;15.90;;;8.57;;
12888;SDS011;56848;49.896;11.424;2023-02-28T16:58:06;13.90;;;8.07;;
12888;SDS011;56848;49.896;11.424;2023-02-28T17:00:39;16.58;;;7.85;;
12888;SDS011;56848;49.896;11.424;2023-02-28T17:03:04;14.23;;;8.00;;
12888;SDS011;56848;49.896;11.424;2023-02-28T17:05:33;21.37;;;9.30;;
12888;SDS011;56848;49.896;11.424;2023-02-28T17:08:03;13.65;;;7.90;;
12888;SDS011;56848;49.896;11.424;2023-02-28T17:10:28;15.77;;;8.77;;
12888;SDS011;56848;49.896;11.424;2023-02-28T17:12:54;17.73;;;9.03;;
12888;SDS011;56848;49.896;11.424;2023-02-28T17:15:20;20.57;;;9.43;;
12888;SDS011;56848;49.896;11.424;2023-02-28T17:17:46;20.30;;;10.07;;
12888;SDS011;56848;49.896;11.424;2023-02-28T17:20:17;16.42;;;9.60;;
12888;SDS011;56848;49.896;11.424;2023-02-28T17:22:47;15.15;;;9.45;;
12888;SDS011;56848;49.896;11.424;2023-02-28T17:25:13;15.75;;;8.40;;
12888;SDS011;56848;49.896;11.424;2023-02-28T17:27:39;13.53;;;8.23;;
12888;SDS011;56848;49.896;11.424;2023-02-28T17:30:25;18.13;;;9.50;;
12888;SDS011;56848;49.896;11.424;2023-02-28T17:32:52;20.20;;;9.90;;
12888;SDS011;56848;49.896;11.424;2023-02-28T17:35:18;16.75;;;9.45;;
12888;SDS011;56848;49.896;11.424;2023-02-28T17:37:44;21.97;;;9.60;;
12888;SDS011;56848;49.896;11.424;2023-02-28T17:40:13;22.97;;;10.23;;
12888;SDS011;56848;49.896;11.424;2023-02-28T17:42:44;20.35;;;10.35;;
12888;SDS011;56848;49.896;11.424;2023-02-28T17:45:10;18.80;;;9.95;;
12888;SDS011;56848;49.896;11.424;2023-02-28T17:47:36;17.57;;;9.30;;
12888;SDS011;56848;49.896;11.424;2023-02-28T17:50:02;21.07;;;9.73;;
12888;SDS011;56848;49.896;11.424;2023-02-28T17:52:28;21.15;;;9.25;;
12888;SDS011;56848;49.896;11.424;2023-02-28T17:54:54;21.30;;;8.80;;
12888;SDS011;56848;49.896;11.424;2023-02-28T17:57:20;14.23;;;9.30;;
12888;SDS011;56848;49.896;11.424;2023-02-28T17:59:46;16.97;;;9.27;;
12888;SDS011;56848;49.896;11.424;2023-02-28T18:02:12;17.33;;;8.83;;
12888;SDS011;56848;49.896;11.424;2023-02-28T18:04:38;18.52;;;9.15;;
12888;SDS011;56848;49.896;11.424;2023-02-28T18:07:05;19.73;;;9.40;;
12888;SDS011;56848;49.896;11.424;2023-02-28T18:09:31;28.88;;;9.68;;
12888;SDS011;56848;49.896;11.424;2023-02-28T18:11:57;20.77;;;9.97;;
12888;SDS011;56848;49.896;11.424;2023-02-28T18:14:23;20.30;;;10.07;;
12888;SDS011;56848;49.896;11.424;2023-02-28T18:16:50;20.55;;;10.05;;
12888;SDS011;56848;49.896;11.424;2023-02-28T18:19:17;21.77;;;11.15;;
12888;SDS011;56848;49.896;11.424;2023-02-28T18:21:44;21.58;;;10.10;;
12888;SDS011;56848;49.896;11.424;2023-02-28T18:24:11;18.75;;;9.90;;
12888;SDS011;56848;49.896;11.424;2023-02-28T18:26:38;20.73;;;9.30;;
12888;SDS011;56848;49.896;11.424;2023-02-28T18:29:04;16.73;;;8.88;;
12888;SDS011;56848;49.896;11.424;2023-02-28T18:31:31;18.05;;;8.80;;
12888;SDS011;56848;49.896;11.424;2023-02-28T18:33:57;28.02;;;11.07;;
12888;SDS011;56848;49.896;11.424;2023-02-28T18:36:23;63.97;;;21.17;;
12888;SDS011;56848;49.896;11.424;2023-02-28T18:38:48;17.07;;;9.97;;
12888;SDS011;56848;49.896;11.424;2023-02-28T18:41:15;22.77;;;10.93;;
12888;SDS011;56848;49.896;11.424;2023-02-28T18:43:41;17.70;;;8.75;;
12888;SDS011;56848;49.896;11.424;2023-02-28T18:46:08;19.27;;;8.90;;
12888;SDS011;56848;49.896;11.424;2023-02-28T18:48:36;15.68;;;8.40;;
12888;SDS011;56848;49.896;11.424;2023-02-28T18:51:09;25.63;;;10.80;;
12888;SDS011;56848;49.896;11.424;2023-02-28T18:53:39;22.63;;;12.00;;
12888;SDS011;56848;49.896;11.424;2023-02-28T18:56:06;21.17;;;10.40;;
12888;SDS011;56848;49.896;11.424;2023-02-28T18:58:33;23.92;;;10.63;;
12888;SDS011;56848;49.896;11.424;2023-02-28T19:00:59;17.70;;;8.90;;
12888;SDS011;56848;49.896;11.424;2023-02-28T19:03:26;17.38;;;9.50;;
12888;SDS011;56848;49.896;11.424;2023-02-28T19:05:58;16.80;;;9.47;;
12888;SDS011;56848;49.896;11.424;2023-02-28T19:08:24;149.77;;;34.70;;
12888;SDS011;56848;49.896;11.424;2023-02-28T19:10:51;41.60;;;14.45;;
12888;SDS011;56848;49.896;11.424;2023-02-28T19:13:17;20.70;;;9.50;;
12888;SDS011;56848;49.896;11.424;2023-02-28T19:15:44;19.15;;;10.25;;
12888;SDS011;56848;49.896;11.424;2023-02-28T19:18:10;18.60;;;9.40;;
12888;SDS011;56848;49.896;11.424;2023-02-28T19:20:35;13.30;;;8.73;;
12888;SDS011;56848;49.896;11.424;2023-02-28T19:23:01;25.97;;;9.70;;
12888;SDS011;56848;49.896;11.424;2023-02-28T19:25:27;23.43;;;11.27;;
12888;SDS011;56848;49.896;11.424;2023-02-28T19:27:53;22.00;;;10.33;;
12888;SDS011;56848;49.896;11.424;2023-02-28T19:30:19;18.23;;;10.30;;
12888;SDS011;56848;49.896;11.424;2023-02-28T19:32:45;25.08;;;10.57;;
12888;SDS011;56848;49.896;11.424;2023-02-28T19:35:12;25.77;;;10.02;;
12888;SDS011;56848;49.896;11.424;2023-02-28T19:37:38;20.50;;;9.95;;
12888;SDS011;56848;49.896;11.424;2023-02-28T19:40:06;24.40;;;12.88;;
12888;SDS011;56848;49.896;11.424;2023-02-28T19:42:33;21.75;;;10.35;;
12888;SDS011;56848;49.896;11.424;2023-02-28T19:44:59;24.50;;;9.43;;
12888;SDS011;56848;49.896;11.424;2023-02-28T19:47:25;24.05;;;11.13;;
12888;SDS011;56848;49.896;11.424;2023-02-28T19:49:50;17.23;;;9.60;;
12888;SDS011;56848;49.896;11.424;2023-02-28T19:52:20;16.48;;;9.68;;
12888;SDS011;56848;49.896;11.424;2023-02-28T19:54:46;22.08;;;10.77;;
12888;SDS011;56848;49.896;11.424;2023-02-28T19:57:11;20.63;;;10.40;;
12888;SDS011;56848;49.896;11.424;2023-02-28T19:59:37;19.77;;;10.10;;
12888;SDS011;56848;49.896;11.424;2023-02-28T20:02:03;19.87;;;9.93;;
12888;SDS011;56848;49.896;11.424;2023-02-28T20:04:29;23.42;;;10.55;;
12888;SDS011;56848;49.896;11.424;2023-02-28T20:06:54;31.53;;;11.60;;
12888;SDS011;56848;49.896;11.424;2023-02-28T20:09:20;21.60;;;9.67;;
12888;SDS011;56848;49.896;11.424;2023-02-28T20:11:45;18.37;;;10.47;;
12888;SDS011;56848;49.896;11.424;2023-02-28T20:14:12;17.55;;;10.02;;
12888;SDS011;56848;49.896;11.424;2023-02-28T20:16:38;21.37;;;10.23;;
12888;SDS011;56848;49.896;11.424;2023-02-28T20:19:04;24.38;;;10.95;;
12888;SDS011;56848;49.896;11.424;2023-02-28T20:21:30;22.00;;;10.60;;
12888;SDS011;56848;49.896;11.424;2023-02-28T20:23:56;20.50;;;10.40;;
12888;SDS011;56848;49.896;11.424;2023-02-28T20:26:21;23.50;;;11.10;;
12888;SDS011;56848;49.896;11.424;2023-02-28T20:28:47;22.60;;;11.27;;
12888;SDS011;56848;49.896;11.424;2023-02-28T20:31:20;25.53;;;11.80;;
12888;SDS011;56848;49.896;11.424;2023-02-28T20:33:48;21.00;;;10.23;;
12888;SDS011;56848;49.896;11.424;2023-02-28T20:36:15;23.30;;;11.10;;
12888;SDS011;56848;49.896;11.424;2023-02-28T20:38:43;29.88;;;12.90;;
12888;SDS011;56848;49.896;11.424;2023-02-28T20:41:09;22.92;;;11.23;;
12888;SDS011;56848;49.896;11.424;2023-02-28T20:43:36;17.30;;;10.35;;
12888;SDS011;56848;49.896;11.424;2023-02-28T20:46:01;19.50;;;9.97;;
12888;SDS011;56848;49.896;11.424;2023-02-28T20:48:28;21.87;;;10.50;;
12888;SDS011;56848;49.896;11.424;2023-02-28T20:50:55;23.80;;;11.48;;
12888;SDS011;56848;49.896;11.424;2023-02-28T20:53:23;21.95;;;11.25;;
12888;SDS011;56848;49.896;11.424;2023-02-28T20:56:09;23.25;;;10.68;;
12888;SDS011;56848;49.896;11.424;2023-02-28T20:58:40;22.73;;;10.63;;
12888;SDS011;56848;49.896;11.424;2023-02-28T21:01:08;23.25;;;11.63;;
12888;SDS011;56848;49.896;11.424;2023-02-28T21:03:37;22.70;;;11.40;;
12888;SDS011;56848;49.896;11.424;2023-02-28T21:06:04;21.90;;;10.63;;
12888;SDS011;56848;49.896;11.424;2023-02-28T21:08:30;21.67;;;11.18;;
12888;SDS011;56848;49.896;11.424;2023-02-28T21:10:57;22.65;;;10.75;;
12888;SDS011;56848;49.896;11.424;2023-02-28T21:13:22;28.37;;;11.87;;
12888;SDS011;56848;49.896;11.424;2023-02-28T21:15:50;23.80;;;10.57;;
12888;SDS011;56848;49.896;11.424;2023-02-28T21:18:16;22.17;;;10.23;;
12888;SDS011;56848;49.896;11.424;2023-02-28T21:20:42;22.60;;;11.00;;
12888;SDS011;56848;49.896;11.424;2023-02-28T21:23:08;20.90;;;11.13;;
12888;SDS011;56848;49.896;11.424;2023-02-28T21:25:33;24.67;;;12.57;;
12888;SDS011;56848;49.896;11.424;2023-02-28T21:27:59;22.70;;;10.80;;
12888;SDS011;56848;49.896;11.424;2023-02-28T21:30:24;20.60;;;10.37;;
12888;SDS011;56848;49.896;11.424;2023-02-28T21:32:50;23.43;;;11.50;;
12888;SDS011;56848;49.896;11.424;2023-02-28T21:35:15;20.13;;;11.53;;
12888;SDS011;56848;49.896;11.424;2023-02-28T21:37:41;24.90;;;11.83;;
12888;SDS011;56848;49.896;11.424;2023-02-28T21:40:08;26.02;;;12.25;;